Time;durP1;ratioP1;P1;durP2;ratioP2;P2;SDS_P1;SDS_P2;PMS_P1;PMS_P2;Temp;Humidity;BMP_temperature;BMP_pressure;BME280_temperature;BME280_humidity;BME280_pressure;Samples;Min_cycle;Max_cycle;Signal;HPM_P1;HPM_P2
2022/09/01 00:00:10;;;;;;;1.10;0.80;;;13.90;99.90;;;;;;5040226;28;20209;-43
2022/09/01 00:02:36;;;;;;;0.60;0.60;;;13.90;99.90;;;;;;5041724;28;21049;-42
2022/09/01 00:05:06;;;;;;;1.23;0.70;;;13.90;99.90;;;;;;5029746;28;20203;-45
2022/09/01 00:07:34;;;;;;;1.10;1.00;;;13.90;99.90;;;;;;5041425;28;20947;-44
2022/09/01 00:10:02;;;;;;;0.80;0.80;;;13.90;99.90;;;;;;5044330;28;20648;-45
2022/09/01 00:12:31;;;;;;;0.67;0.60;;;13.90;99.90;;;;;;5041502;28;20219;-44
2022/09/01 00:14:58;;;;;;;1.67;0.73;;;13.80;99.90;;;;;;5043229;28;20210;-44
2022/09/01 00:17:26;;;;;;;1.13;0.83;;;13.80;99.90;;;;;;5041909;28;20216;-45
2022/09/01 00:19:53;;;;;;;2.00;0.67;;;13.70;99.90;;;;;;5030344;28;20234;-44
2022/09/01 00:22:20;;;;;;;2.30;0.50;;;13.70;99.90;;;;;;5042869;28;20298;-43
2022/09/01 00:24:47;;;;;;;1.70;0.70;;;13.60;99.90;;;;;;5042254;28;20254;-44
2022/09/01 00:27:15;;;;;;;2.40;1.00;;;13.60;99.90;;;;;;5044325;28;20195;-44
2022/09/01 00:29:43;;;;;;;0.70;0.70;;;13.50;99.90;;;;;;5037524;28;20280;-43
2022/09/01 00:32:10;;;;;;;0.60;0.60;;;13.50;99.90;;;;;;5043713;28;20310;-44
2022/09/01 00:34:37;;;;;;;0.80;0.70;;;13.50;99.90;;;;;;5024182;28;22179;-44
2022/09/01 00:37:04;;;;;;;0.90;0.60;;;13.50;99.90;;;;;;5044656;28;20329;-43
2022/09/01 00:39:31;;;;;;;1.37;0.57;;;13.50;99.90;;;;;;5040692;28;20199;-45
2022/09/01 00:41:58;;;;;;;1.20;0.90;;;13.50;99.90;;;;;;5043741;28;20524;-44
2022/09/01 00:44:26;;;;;;;1.47;0.80;;;13.40;99.90;;;;;;5041210;28;20675;-44
2022/09/01 00:46:55;;;;;;;0.50;0.50;;;13.40;99.90;;;;;;5044610;28;20215;-47
2022/09/01 00:49:28;;;;;;;1.10;0.83;;;13.40;99.90;;;;;;5040189;28;20210;-44
2022/09/01 00:52:00;;;;;;;0.67;0.67;;;13.40;99.90;;;;;;5030043;28;20223;-45
2022/09/01 00:54:32;;;;;;;1.03;0.50;;;13.40;99.90;;;;;;5039766;28;20735;-46
2022/09/01 00:57:00;;;;;;;1.90;0.70;;;13.40;99.90;;;;;;5044167;28;20206;-47
2022/09/01 00:59:28;;;;;;;0.60;0.60;;;13.40;99.90;;;;;;5039111;28;20211;-42
2022/09/01 01:01:58;;;;;;;0.70;0.70;;;13.30;99.90;;;;;;5041651;28;20243;-45
2022/09/01 01:04:25;;;;;;;1.60;1.10;;;13.20;99.90;;;;;;5040565;28;20214;-43
2022/09/01 01:07:00;;;;;;;0.70;0.70;;;13.20;99.90;;;;;;5025911;28;20206;-44
2022/09/01 01:09:30;;;;;;;1.70;1.00;;;13.20;99.90;;;;;;5039618;28;20214;-46
2022/09/01 01:11:58;;;;;;;0.70;0.70;;;13.20;99.90;;;;;;5043449;28;20294;-43
2022/09/01 01:14:30;;;;;;;0.70;0.70;;;13.20;99.90;;;;;;5040513;28;20629;-43
2022/09/01 01:16:59;;;;;;;0.70;0.70;;;13.20;99.90;;;;;;5040752;28;20685;-43
2022/09/01 01:25:24;;;;;;;2.00;0.97;;;13.10;99.90;;;;;;4970327;28;20828;-47
2022/09/01 01:27:51;;;;;;;2.53;0.97;;;13.10;99.90;;;;;;5042343;28;20210;-43
2022/09/01 01:30:19;;;;;;;1.00;0.90;;;13.10;99.90;;;;;;5042000;28;20282;-44
2022/09/01 01:32:46;;;;;;;0.97;0.73;;;13.10;99.90;;;;;;5037545;28;20231;-45
2022/09/01 01:35:17;;;;;;;1.47;0.70;;;13.00;99.90;;;;;;5041350;28;20696;-48
2022/09/01 01:37:47;;;;;;;1.23;0.70;;;13.00;99.90;;;;;;5041270;28;20821;-43
2022/09/01 01:40:20;;;;;;;0.80;0.80;;;13.00;99.90;;;;;;5035763;28;20249;-46
2022/09/01 01:42:51;;;;;;;0.93;0.90;;;13.00;99.90;;;;;;5040582;28;20238;-45
2022/09/01 01:45:20;;;;;;;2.40;1.00;;;13.00;99.90;;;;;;5039199;28;20207;-43
2022/09/01 01:47:52;;;;;;;1.77;1.03;;;13.00;99.90;;;;;;5038012;28;20908;-45
2022/09/01 01:50:22;;;;;;;1.20;1.10;;;13.00;99.90;;;;;;5039082;28;20721;-44
2022/09/01 01:52:49;;;;;;;1.83;1.07;;;12.90;99.90;;;;;;5026539;28;20216;-44
2022/09/01 01:55:18;;;;;;;1.40;1.30;;;12.90;99.90;;;;;;5039722;28;20196;-43
2022/09/01 01:57:50;;;;;;;1.23;1.13;;;12.90;99.90;;;;;;5040838;28;20917;-43
2022/09/01 02:00:19;;;;;;;0.87;0.87;;;12.90;99.90;;;;;;5040294;28;20207;-44
2022/09/01 02:02:51;;;;;;;1.20;0.93;;;12.80;99.90;;;;;;5040442;28;20863;-42
2022/09/01 02:05:23;;;;;;;1.80;1.03;;;12.80;99.90;;;;;;5039274;28;20207;-44
2022/09/01 02:07:55;;;;;;;1.20;1.10;;;12.90;99.90;;;;;;5026161;28;21051;-42
2022/09/01 02:10:26;;;;;;;1.10;1.00;;;12.90;99.90;;;;;;5038465;28;20604;-42
2022/09/01 02:12:55;;;;;;;1.40;0.87;;;12.80;99.90;;;;;;5040661;28;20227;-43
2022/09/01 02:15:22;;;;;;;1.47;1.20;;;12.80;99.90;;;;;;5038570;28;20214;-43
2022/09/01 02:17:49;;;;;;;1.33;1.20;;;12.70;99.90;;;;;;5040093;28;20314;-42
2022/09/01 02:20:16;;;;;;;1.50;1.13;;;12.70;99.90;;;;;;5037540;28;20270;-44
2022/09/01 02:22:44;;;;;;;0.77;0.77;;;12.70;99.90;;;;;;5025654;28;20860;-43
2022/09/01 02:25:15;;;;;;;1.00;1.00;;;12.70;99.90;;;;;;5042031;28;20265;-44
2022/09/01 02:27:42;;;;;;;1.03;1.03;;;12.70;99.90;;;;;;5055150;28;20226;-45
2022/09/01 02:30:11;;;;;;;1.37;1.27;;;12.70;99.90;;;;;;5041293;28;20577;-49
2022/09/01 02:32:40;;;;;;;1.13;0.97;;;12.70;99.90;;;;;;5036814;28;21041;-44
2022/09/01 02:35:10;;;;;;;3.37;1.07;;;12.70;99.90;;;;;;5034885;28;20206;-45
2022/09/01 02:37:40;;;;;;;2.27;1.20;;;12.60;99.90;;;;;;5024060;28;20208;-43
2022/09/01 02:40:09;;;;;;;2.20;1.00;;;12.60;99.90;;;;;;5042282;28;20211;-42
2022/09/01 02:42:42;;;;;;;1.23;1.20;;;12.60;99.90;;;;;;5037169;28;20211;-46
2022/09/01 02:45:15;;;;;;;1.47;1.20;;;12.60;99.90;;;;;;5041556;28;20195;-47
2022/09/01 02:47:45;;;;;;;4.47;1.40;;;12.60;99.90;;;;;;5038177;28;20203;-47
2022/09/01 02:50:15;;;;;;;3.13;1.50;;;12.50;99.90;;;;;;5041119;28;20214;-47
2022/09/01 02:52:43;;;;;;;1.20;1.10;;;12.60;99.90;;;;;;5037650;28;23410;-46
2022/09/01 02:55:11;;;;;;;1.40;1.30;;;12.50;99.90;;;;;;5040216;28;20825;-44
2022/09/01 02:57:39;;;;;;;1.37;1.20;;;12.50;99.90;;;;;;5036311;28;20897;-46
2022/09/01 03:00:19;;;;;;;2.33;1.70;;;12.50;99.90;;;;;;5041055;28;20226;-49
2022/09/01 03:02:51;;;;;;;1.50;1.40;;;12.50;99.90;;;;;;5039421;28;20293;-45
2022/09/01 03:05:24;;;;;;;2.30;2.03;;;12.50;99.90;;;;;;5038395;28;20680;-45
2022/09/01 03:07:55;;;;;;;1.63;1.53;;;12.50;99.90;;;;;;5035754;28;20209;-44
2022/09/01 03:10:30;;;;;;;1.60;1.50;;;12.50;99.90;;;;;;5033625;28;20224;-47
2022/09/01 03:12:58;;;;;;;1.77;1.67;;;12.50;99.90;;;;;;5036629;28;20217;-45
2022/09/01 03:15:26;;;;;;;1.43;1.33;;;12.50;99.90;;;;;;5038930;28;20274;-46
2022/09/01 03:17:54;;;;;;;2.63;1.47;;;12.50;99.90;;;;;;5038421;28;20660;-44
2022/09/01 03:20:20;;;;;;;1.60;1.37;;;12.50;99.90;;;;;;5038597;28;20215;-45
2022/09/01 03:22:49;;;;;;;2.70;1.40;;;12.50;99.90;;;;;;5037374;28;20211;-45
2022/09/01 03:25:17;;;;;;;1.27;1.17;;;12.50;99.90;;;;;;5021886;28;20234;-46
2022/09/01 03:27:44;;;;;;;2.00;1.00;;;12.50;99.90;;;;;;5038498;28;20199;-46
2022/09/01 03:30:13;;;;;;;1.20;1.20;;;12.50;99.90;;;;;;5039155;28;20573;-46
2022/09/01 03:32:39;;;;;;;1.20;1.10;;;12.50;99.90;;;;;;5037175;28;21034;-43
2022/09/01 03:35:09;;;;;;;1.13;1.03;;;12.50;99.90;;;;;;5039535;28;20213;-44
2022/09/01 03:37:36;;;;;;;1.40;1.30;;;12.50;99.90;;;;;;5032270;28;20268;-43
2022/09/01 03:40:04;;;;;;;1.50;1.40;;;12.50;99.90;;;;;;5024358;28;20216;-43
2022/09/01 03:42:32;;;;;;;1.50;1.40;;;12.40;99.90;;;;;;5036112;28;20277;-45
2022/09/01 03:44:59;;;;;;;2.23;1.50;;;12.40;99.90;;;;;;5041264;28;20566;-43
2022/09/01 03:47:26;;;;;;;1.60;1.50;;;12.30;99.90;;;;;;5036933;28;20294;-48
2022/09/01 03:49:55;;;;;;;3.00;1.80;;;12.20;99.90;;;;;;5041937;28;20660;-43
2022/09/01 03:52:24;;;;;;;1.10;1.10;;;12.30;99.90;;;;;;5043485;28;20324;-44
2022/09/01 03:54:52;;;;;;;1.40;1.30;;;12.20;99.90;;;;;;5029014;28;20211;-46
2022/09/01 03:57:22;;;;;;;2.20;2.00;;;12.30;99.90;;;;;;5042987;28;20206;-45
2022/09/01 03:59:49;;;;;;;2.37;1.63;;;12.30;99.90;;;;;;5043046;28;20215;-42
2022/09/01 04:02:16;;;;;;;1.87;1.77;;;12.30;99.90;;;;;;5041513;28;20285;-43
2022/09/01 04:04:43;;;;;;;1.60;1.50;;;12.30;99.90;;;;;;5037331;28;20198;-44
2022/09/01 04:07:10;;;;;;;1.80;1.70;;;12.30;99.90;;;;;;5037116;28;20291;-44
2022/09/01 04:09:38;;;;;;;2.53;1.97;;;12.30;99.90;;;;;;5046219;28;20720;-46
2022/09/01 04:12:09;;;;;;;2.00;1.90;;;12.30;99.90;;;;;;5026031;28;20715;-48
2022/09/01 04:14:39;;;;;;;2.10;1.80;;;12.20;99.90;;;;;;5041256;28;20619;-47
2022/09/01 04:19:50;;;;;;;1.80;1.57;;;12.20;99.90;;;;;;5053466;28;20588;-46
2022/09/01 04:22:17;;;;;;;3.50;2.10;;;12.20;99.90;;;;;;5039960;28;20367;-43
2022/09/01 04:24:46;;;;;;;2.10;1.90;;;12.20;99.90;;;;;;5040899;28;20207;-49
2022/09/01 04:27:16;;;;;;;3.70;2.40;;;12.20;99.90;;;;;;5028226;28;20311;-44
2022/09/01 04:29:45;;;;;;;4.07;1.97;;;12.10;99.90;;;;;;5042846;28;20593;-45
2022/09/01 04:32:12;;;;;;;1.90;1.80;;;12.10;99.90;;;;;;5047220;28;20875;-48
2022/09/01 04:34:41;;;;;;;2.00;1.60;;;12.10;99.90;;;;;;5047990;28;20565;-43
2022/09/01 04:37:13;;;;;;;1.40;1.33;;;12.10;99.90;;;;;;5056521;28;20707;-42
2022/09/01 04:39:47;;;;;;;2.00;1.67;;;12.10;99.90;;;;;;5036189;28;20329;-45
2022/09/01 04:42:17;;;;;;;2.30;2.17;;;12.00;99.90;;;;;;5028173;28;20346;-43
2022/09/01 04:44:45;;;;;;;1.93;1.83;;;12.00;99.90;;;;;;5042444;28;20302;-45
2022/09/01 04:47:15;;;;;;;1.90;1.70;;;12.00;99.90;;;;;;5047972;28;20192;-46
2022/09/01 04:49:44;;;;;;;3.30;2.00;;;12.00;99.90;;;;;;5043004;28;20336;-43
2022/09/01 04:52:11;;;;;;;1.90;1.80;;;12.00;99.90;;;;;;5042471;28;21179;-44
2022/09/01 04:54:38;;;;;;;1.90;1.80;;;12.00;99.90;;;;;;5043126;28;20214;-43
2022/09/01 04:57:07;;;;;;;2.20;2.00;;;12.00;99.90;;;;;;5025790;28;20235;-45
2022/09/01 04:59:38;;;;;;;2.40;2.20;;;12.00;99.90;;;;;;5045823;28;20214;-45
2022/09/01 05:02:06;;;;;;;3.00;2.60;;;12.00;99.90;;;;;;5036136;28;20856;-45
2022/09/01 05:04:33;;;;;;;3.73;2.20;;;11.90;99.90;;;;;;5045653;28;21028;-43
2022/09/01 05:07:02;;;;;;;2.60;2.40;;;12.00;99.90;;;;;;5034580;28;20920;-44
2022/09/01 05:09:35;;;;;;;2.50;2.27;;;12.00;99.90;;;;;;5040581;28;20664;-43
2022/09/01 05:12:14;;;;;;;4.80;2.97;;;12.00;99.90;;;;;;5042030;28;20492;-43
2022/09/01 05:14:46;;;;;;;2.73;2.10;;;12.00;99.90;;;;;;5026858;28;20242;-47
2022/09/01 05:17:14;;;;;;;3.33;2.37;;;12.10;99.90;;;;;;5044279;28;20225;-48
2022/09/01 05:19:46;;;;;;;3.43;2.30;;;12.10;99.90;;;;;;5068573;28;20242;-48
2022/09/01 05:22:20;;;;;;;4.37;2.60;;;12.10;99.90;;;;;;5050694;28;20235;-43
2022/09/01 05:24:55;;;;;;;3.30;2.17;;;12.20;99.90;;;;;;5034447;28;20229;-45
2022/09/01 05:27:21;;;;;;;4.63;2.97;;;12.20;99.90;;;;;;5047784;28;20671;-47
2022/09/01 05:29:50;;;;;;;2.93;2.70;;;12.20;99.90;;;;;;5019982;28;20210;-46
2022/09/01 05:32:17;;;;;;;2.47;2.27;;;12.20;99.90;;;;;;5042974;28;20228;-43
2022/09/01 05:34:44;;;;;;;3.20;2.67;;;12.30;99.90;;;;;;5031371;28;20207;-42
2022/09/01 05:37:13;;;;;;;2.80;2.30;;;12.30;99.90;;;;;;5062561;28;20203;-47
2022/09/01 05:39:40;;;;;;;2.40;2.30;;;12.30;99.90;;;;;;5031231;28;20219;-45
2022/09/01 05:42:07;;;;;;;2.90;2.50;;;12.30;99.90;;;;;;5046007;28;20230;-42
2022/09/01 05:44:38;;;;;;;2.60;2.40;;;12.40;99.90;;;;;;5034887;28;20297;-44
2022/09/01 05:47:10;;;;;;;5.77;2.13;;;12.40;99.90;;;;;;5038065;28;20191;-45
2022/09/01 05:49:38;;;;;;;4.63;2.33;;;12.50;99.90;;;;;;5041030;28;20188;-42
2022/09/01 05:52:08;;;;;;;3.80;2.47;;;12.50;99.90;;;;;;5038031;28;20211;-44
2022/09/01 05:54:37;;;;;;;4.53;2.40;;;12.60;99.90;;;;;;5038310;28;20298;-44
2022/09/01 05:57:06;;;;;;;4.23;2.00;;;12.70;99.90;;;;;;5041410;28;20319;-44
2022/09/01 05:59:34;;;;;;;3.83;2.07;;;12.70;99.90;;;;;;5033962;28;20226;-46
2022/09/01 06:02:11;;;;;;;3.37;1.60;;;12.80;99.90;;;;;;5026208;28;20223;-43
2022/09/01 06:04:40;;;;;;;5.90;1.90;;;12.80;99.90;;;;;;5035957;28;21082;-45
2022/09/01 06:07:13;;;;;;;2.23;1.80;;;12.90;99.90;;;;;;5036973;28;20239;-46
2022/09/01 06:09:44;;;;;;;1.70;1.60;;;12.90;99.90;;;;;;5037554;28;20192;-43
2022/09/01 06:12:16;;;;;;;2.17;1.93;;;13.00;99.90;;;;;;5023413;28;20292;-45
2022/09/01 06:14:42;;;;;;;4.77;1.50;;;13.10;99.90;;;;;;5024714;28;20216;-45
2022/09/01 06:17:15;;;;;;;5.63;1.50;;;13.20;99.90;;;;;;5030243;28;20207;-42
2022/09/01 06:19:42;;;;;;;2.50;1.30;;;13.30;99.90;;;;;;5037446;28;20236;-43
2022/09/01 06:22:10;;;;;;;2.67;1.30;;;13.40;99.90;;;;;;5030469;28;20289;-45
2022/09/01 06:24:38;;;;;;;4.47;1.60;;;13.50;99.90;;;;;;5045055;28;20869;-44
2022/09/01 06:27:08;;;;;;;3.67;1.20;;;13.50;99.90;;;;;;5034592;28;20278;-47
2022/09/01 06:29:38;;;;;;;1.77;1.47;;;13.60;99.90;;;;;;5039169;28;20191;-44
2022/09/01 06:32:08;;;;;;;4.87;1.50;;;13.70;99.90;;;;;;5024798;28;20691;-42
2022/09/01 06:34:38;;;;;;;1.60;0.93;;;13.80;99.90;;;;;;5034758;28;20296;-45
2022/09/01 06:37:05;;;;;;;3.00;1.40;;;13.80;99.90;;;;;;5027057;28;20265;-45
2022/09/01 06:39:35;;;;;;;1.40;1.30;;;;;;;;;;5039675;28;20233;-45
2022/09/01 06:42:02;;;;;;;1.00;1.00;;;14.00;99.90;;;;;;5043802;28;20251;-46
2022/09/01 06:44:40;;;;;;;1.83;1.00;;;14.10;99.90;;;;;;5035417;28;20637;-45
2022/09/01 06:47:08;;;;;;;3.40;1.20;;;14.30;99.90;;;;;;5013592;28;20222;-43
2022/09/01 06:49:39;;;;;;;2.43;0.90;;;14.30;99.90;;;;;;5040746;28;20187;-45
2022/09/01 06:52:12;;;;;;;2.20;1.00;;;14.40;99.90;;;;;;5034696;28;20210;-43
2022/09/01 06:54:42;;;;;;;3.80;0.90;;;14.50;99.90;;;;;;5048790;28;20261;-43
2022/09/01 06:57:09;;;;;;;1.70;0.80;;;;;;;;;;5032742;28;20483;-44
2022/09/01 06:59:37;;;;;;;0.97;0.80;;;14.80;99.90;;;;;;5036061;28;20220;-44
2022/09/01 07:02:05;;;;;;;0.90;0.80;;;14.90;99.90;;;;;;5018975;28;20215;-45
2022/09/01 07:04:56;;;;;;;4.60;1.30;;;14.90;99.90;;;;;;5028270;28;20203;-46
2022/09/01 07:07:33;;;;;;;2.17;1.00;;;15.10;99.90;;;;;;5045169;28;20298;-43
2022/09/01 07:10:28;;;;;;;1.10;0.73;;;15.20;99.90;;;;;;5066333;28;20692;-45
2022/09/01 07:13:03;;;;;;;0.83;0.63;;;15.30;99.90;;;;;;5031780;28;20313;-45
2022/09/01 07:15:31;;;;;;;0.50;0.50;;;15.40;99.90;;;;;;5046556;28;20206;-48
2022/09/01 07:17:57;;;;;;;1.70;0.73;;;15.60;99.90;;;;;;5022338;28;20207;-44
2022/09/01 07:20:27;;;;;;;1.33;0.90;;;15.70;99.90;;;;;;5043753;28;20219;-43
2022/09/01 07:22:57;;;;;;;1.50;0.80;;;15.90;99.90;;;;;;5045506;28;20305;-45
2022/09/01 07:25:23;;;;;;;1.90;0.67;;;16.00;99.90;;;;;;5047158;28;20219;-45
2022/09/01 07:27:56;;;;;;;1.00;0.73;;;16.10;99.90;;;;;;5039105;28;20202;-46
2022/09/01 07:30:23;;;;;;;2.10;0.60;;;16.20;99.90;;;;;;5045501;28;20203;-43
2022/09/01 07:32:50;;;;;;;1.03;0.60;;;16.20;99.90;;;;;;5023886;28;20223;-43
2022/09/01 07:35:21;;;;;;;0.73;0.50;;;16.30;99.90;;;;;;5051241;28;20200;-43
2022/09/01 07:37:50;;;;;;;1.45;0.57;;;16.40;99.90;;;;;;5041448;28;20444;-46
2022/09/01 07:40:21;;;;;;;0.80;0.60;;;16.60;99.90;;;;;;5038048;28;20454;-44
2022/09/01 07:43:18;;;;;;;1.65;0.60;;;16.60;99.90;;;;;;5029278;28;21227;-45
2022/09/01 07:46:05;;;;;;;1.07;0.80;;;17.00;99.90;;;;;;5039709;28;20278;-43
2022/09/01 07:48:33;;;;;;;2.97;1.10;;;17.10;99.90;;;;;;5027022;28;20214;-43
2022/09/01 07:51:00;;;;;;;0.93;0.77;;;17.20;99.90;;;;;;5039671;28;20195;-44
2022/09/01 07:53:31;;;;;;;0.50;0.50;;;17.20;99.90;;;;;;5036663;28;20223;-43
2022/09/01 07:56:08;;;;;;;0.70;0.60;;;17.20;99.90;;;;;;5026815;28;20204;-47
2022/09/01 07:58:40;;;;;;;1.83;0.63;;;17.40;99.90;;;;;;5047016;28;20727;-43
2022/09/01 08:01:08;;;;;;;0.77;0.47;;;17.50;99.90;;;;;;5037839;28;20219;-43
2022/09/01 08:03:38;;;;;;;1.00;0.40;;;17.70;99.90;;;;;;5037687;28;20223;-45
2022/09/01 08:06:08;;;;;;;0.93;0.40;;;17.70;99.90;;;;;;5020448;28;20258;-43
2022/09/01 08:08:38;;;;;;;2.13;0.40;;;17.90;99.90;;;;;;5052379;28;20227;-41
2022/09/01 08:11:07;;;;;;;0.50;0.40;;;17.90;99.90;;;;;;5033053;28;21847;-44
2022/09/01 08:13:37;;;;;;;2.10;0.80;;;18.10;99.90;;;;;;5034840;28;20269;-43
2022/09/01 08:16:07;;;;;;;2.43;0.50;;;18.10;99.90;;;;;;5034016;28;20210;-42
2022/09/01 08:18:35;;;;;;;1.20;0.40;;;18.20;99.90;;;;;;5042355;28;20196;-44
2022/09/01 08:21:06;;;;;;;0.30;0.30;;;18.30;99.90;;;;;;5034705;28;20225;-43
2022/09/01 08:23:38;;;;;;;0.30;0.30;;;18.40;99.90;;;;;;5040829;28;20227;-41
2022/09/01 08:26:06;;;;;;;0.67;0.30;;;18.50;99.90;;;;;;5021679;28;20250;-42
2022/09/01 08:28:33;;;;;;;0.93;0.60;;;18.50;99.90;;;;;;5047077;28;20660;-44
2022/09/01 08:31:00;;;;;;;0.30;0.30;;;18.50;99.90;;;;;;5033853;28;20581;-41
2022/09/01 08:33:28;;;;;;;0.40;0.40;;;18.70;99.90;;;;;;5038914;28;20227;-44
2022/09/01 08:35:56;;;;;;;3.13;0.30;;;18.80;99.90;;;;;;5035907;28;20298;-42
2022/09/01 08:38:23;;;;;;;0.20;0.20;;;18.90;99.90;;;;;;5034820;28;20223;-44
2022/09/01 08:40:54;;;;;;;1.57;0.43;;;18.90;99.90;;;;;;5033124;28;20301;-55
2022/09/01 08:43:33;;;;;;;0.27;0.27;;;19.00;99.90;;;;;;5041305;28;20515;-42
2022/09/01 08:46:10;;;;;;;1.10;0.30;;;19.10;99.90;;;;;;5037679;28;20245;-45
2022/09/01 08:48:41;;;;;;;0.30;0.30;;;19.20;99.90;;;;;;5043381;28;20260;-45
2022/09/01 08:51:18;;;;;;;0.53;0.50;;;19.10;99.90;;;;;;5025184;28;20233;-44
2022/09/01 08:54:04;;;;;;;1.17;0.53;;;19.20;99.60;;;;;;5034849;28;20715;-42
2022/09/01 08:56:35;;;;;;;2.10;0.50;;;19.30;99.50;;;;;;5043587;28;20791;-41
2022/09/01 08:59:02;;;;;;;0.83;0.30;;;19.40;99.10;;;;;;5036458;28;20234;-42
2022/09/01 09:01:44;;;;;;;2.30;0.33;;;19.40;98.60;;;;;;5039119;28;20211;-42
2022/09/01 09:04:27;;;;;;;1.70;0.30;;;19.50;98.50;;;;;;5027504;28;20234;-42
2022/09/01 09:07:01;;;;;;;0.40;0.30;;;19.60;97.40;;;;;;5025674;28;20207;-43
2022/09/01 09:09:35;;;;;;;0.83;0.50;;;19.70;97.30;;;;;;5038097;28;20199;-41
2022/09/01 09:12:20;;;;;;;0.57;0.53;;;19.80;97.10;;;;;;5026841;28;20284;-44
2022/09/01 09:15:05;;;;;;;0.33;0.33;;;19.80;96.60;;;;;;5038581;28;20214;-46
2022/09/01 09:17:36;;;;;;;0.40;0.30;;;19.90;96.20;;;;;;5029984;28;20199;-42
2022/09/01 09:20:04;;;;;;;0.27;0.27;;;20.00;96.00;;;;;;5031059;28;20306;-43
2022/09/01 09:22:31;;;;;;;0.30;0.30;;;20.10;95.10;;;;;;5025006;28;20211;-44
2022/09/01 09:25:06;;;;;;;0.60;0.30;;;20.10;94.90;;;;;;5032058;28;20234;-43
2022/09/01 09:27:36;;;;;;;0.37;0.37;;;20.20;94.90;;;;;;5040989;28;20605;-44
2022/09/01 09:30:08;;;;;;;1.50;0.30;;;20.30;94.30;;;;;;5036255;28;20770;-42
2022/09/01 09:32:48;;;;;;;0.30;0.30;;;20.40;94.00;;;;;;5033258;28;20290;-42
2022/09/01 09:35:25;;;;;;;0.60;0.30;;;20.40;93.80;;;;;;5027313;28;20429;-45
2022/09/01 09:37:52;;;;;;;1.00;0.40;;;20.30;93.90;;;;;;5026611;28;20203;-43
2022/09/01 09:40:21;;;;;;;2.53;0.50;;;20.20;93.50;;;;;;5045657;28;20219;-42
2022/09/01 09:43:08;;;;;;;2.57;0.50;;;20.10;93.80;;;;;;5044701;28;20219;-44
2022/09/01 09:45:37;;;;;;;5.03;0.50;;;20.10;94.00;;;;;;5039262;28;20214;-42
2022/09/01 09:48:08;;;;;;;1.17;0.30;;;20.10;94.10;;;;;;5037305;28;20192;-47
2022/09/01 09:50:38;;;;;;;0.87;0.40;;;20.10;94.10;;;;;;5041687;28;20206;-44
2022/09/01 09:53:17;;;;;;;2.47;0.43;;;20.00;93.70;;;;;;5027586;28;20230;-44
2022/09/01 09:55:56;;;;;;;6.27;0.60;;;20.10;93.10;;;;;;5042427;28;20205;-42
2022/09/01 09:58:27;;;;;;;10.67;1.07;;;20.10;92.80;;;;;;5038013;28;20207;-42
2022/09/01 10:01:14;;;;;;;0.43;0.40;;;20.20;93.10;;;;;;5028135;28;20221;-42
2022/09/01 10:03:44;;;;;;;3.10;0.50;;;20.30;92.80;;;;;;5039843;28;20230;-45
2022/09/01 10:06:14;;;;;;;1.93;0.63;;;20.40;92.70;;;;;;5036902;28;20201;-43
2022/09/01 10:08:46;;;;;;;0.77;0.40;;;20.50;92.30;;;;;;5021261;28;20207;-42
2022/09/01 10:11:27;;;;;;;1.23;0.30;;;20.50;91.80;;;;;;5041427;28;20199;-42
2022/09/01 10:13:56;;;;;;;1.40;0.40;;;20.40;91.40;;;;;;5033931;28;20226;-44
2022/09/01 10:16:28;;;;;;;0.97;0.30;;;20.30;91.30;;;;;;5036952;28;20215;-42
2022/09/01 10:18:59;;;;;;;1.90;0.30;;;20.20;91.90;;;;;;5034015;28;20245;-43
2022/09/01 10:21:31;;;;;;;0.70;0.40;;;20.10;91.80;;;;;;5040970;28;20584;-44
2022/09/01 10:24:00;;;;;;;0.33;0.30;;;20.10;91.70;;;;;;5030177;28;20710;-43
2022/09/01 10:26:33;;;;;;;1.30;0.30;;;20.30;91.60;;;;;;5040268;28;20216;-42
2022/09/01 10:29:07;;;;;;;0.50;0.50;;;20.40;91.00;;;;;;5036161;28;20194;-43
2022/09/01 10:31:35;;;;;;;5.23;0.80;;;20.60;90.70;;;;;;5039188;28;20285;-43
2022/09/01 10:34:04;;;;;;;1.23;0.40;;;20.60;90.60;;;;;;5037846;28;20851;-42
2022/09/01 10:36:33;;;;;;;2.33;0.60;;;20.50;90.60;;;;;;5037548;28;20730;-45
2022/09/01 10:39:00;;;;;;;4.13;0.70;;;20.40;90.60;;;;;;5030196;28;20199;-43
2022/09/01 10:41:49;;;;;;;4.87;0.87;;;20.30;90.80;;;;;;5042713;28;20227;-42
2022/09/01 10:44:23;;;;;;;2.70;0.80;;;20.30;91.10;;;;;;5036872;28;20928;-42
2022/09/01 10:46:51;;;;;;;1.47;0.50;;;20.20;90.90;;;;;;5042980;28;20658;-44
2022/09/01 10:49:57;;;;;;;0.60;0.43;;;20.20;90.80;;;;;;5039171;28;20301;-45
2022/09/01 10:52:52;;;;;;;0.70;0.40;;;20.20;90.10;;;;;;5042857;28;20223;-47
2022/09/01 10:55:22;;;;;;;0.80;0.40;;;20.20;88.00;;;;;;5024050;28;20211;-44
2022/09/01 10:57:56;;;;;;;0.50;0.50;;;20.30;88.50;;;;;;5041295;28;20750;-43
2022/09/01 11:00:50;;;;;;;0.30;0.30;;;20.40;88.50;;;;;;5033720;28;20521;-43
2022/09/01 11:03:56;;;;;;;0.57;0.30;;;20.70;87.90;;;;;;5035186;28;20230;-46
2022/09/01 11:07:00;;;;;;;0.30;0.23;;;20.90;87.30;;;;;;5030484;28;20586;-42
2022/09/01 11:09:34;;;;;;;0.47;0.40;;;21.30;84.70;;;;;;5030004;28;20211;-43
2022/09/01 11:12:23;;;;;;;0.50;0.30;;;21.60;85.00;;;;;;5027509;28;20234;-44
2022/09/01 11:14:52;;;;;;;2.93;0.77;;;21.90;82.70;;;;;;5040041;28;20195;-44
2022/09/01 11:17:23;;;;;;;0.30;0.30;;;22.10;83.20;;;;;;5045968;28;20814;-43
2022/09/01 11:20:22;;;;;;;0.67;0.43;;;22.30;80.50;;;;;;5039104;28;20213;-45
2022/09/01 11:23:01;;;;;;;0.87;0.47;;;22.30;78.10;;;;;;5039072;28;20967;-43
2022/09/01 11:25:36;;;;;;;0.33;0.30;;;22.30;78.60;;;;;;5026938;28;20203;-43
2022/09/01 11:28:35;;;;;;;1.10;1.00;;;22.30;78.40;;;;;;5040407;28;20214;-42
2022/09/01 11:31:13;;;;;;;4.27;0.40;;;22.20;78.40;;;;;;5045763;28;20188;-46
2022/09/01 11:34:12;;;;;;;1.90;0.53;;;22.20;78.80;;;;;;5025578;28;20229;-47
2022/09/01 11:36:55;;;;;;;0.47;0.47;;;22.20;80.20;;;;;;5018469;28;20219;-47
2022/09/01 11:39:42;;;;;;;0.60;0.50;;;22.10;81.30;;;;;;5037246;28;20211;-44
2022/09/01 11:42:18;;;;;;;1.70;0.63;;;22.20;81.00;;;;;;5021758;28;20223;-48
2022/09/01 11:44:51;;;;;;;0.67;0.60;;;22.20;81.10;;;;;;5030401;28;20203;-45
2022/09/01 11:47:21;;;;;;;0.80;0.37;;;22.10;81.70;;;;;;5038497;28;20208;-42
2022/09/01 11:49:53;;;;;;;3.37;0.43;;;22.10;81.10;;;;;;5033580;28;20266;-42
2022/09/01 11:52:23;;;;;;;0.87;0.40;;;22.20;80.90;;;;;;5038530;28;20259;-44
2022/09/01 11:54:51;;;;;;;0.87;0.40;;;22.40;80.20;;;;;;5037871;28;20207;-42
2022/09/01 11:57:27;;;;;;;2.20;0.60;;;22.30;79.80;;;;;;5036545;28;20200;-42
2022/09/01 11:59:55;;;;;;;4.37;0.77;;;22.30;79.70;;;;;;5034954;28;20298;-45
2022/09/01 12:02:24;;;;;;;4.07;0.60;;;22.30;79.60;;;;;;5026506;28;20230;-45
2022/09/01 12:04:53;;;;;;;2.00;0.70;;;22.20;79.50;;;;;;5028843;28;20214;-42
2022/09/01 12:07:42;;;;;;;8.70;0.82;;;22.20;79.50;;;;;;5037103;28;20203;-42
2022/09/01 12:10:20;;;;;;;2.03;0.63;;;22.30;78.30;;;;;;5038585;28;20209;-44
2022/09/01 12:12:47;;;;;;;5.53;0.77;;;22.30;78.10;;;;;;5044563;28;20198;-44
2022/09/01 12:15:20;;;;;;;10.90;1.57;;;22.20;78.80;;;;;;5029361;28;20207;-44
2022/09/01 12:17:47;;;;;;;9.13;0.87;;;22.10;78.70;;;;;;5036854;28;20208;-43
2022/09/01 12:20:27;;;;;;;3.80;0.87;;;22.30;79.70;;;;;;5028345;28;20223;-47
2022/09/01 12:22:55;;;;;;;0.47;0.40;;;22.50;77.30;;;;;;5036523;28;20269;-44
2022/09/01 12:25:26;;;;;;;0.60;0.50;;;22.50;77.90;;;;;;5037079;28;20202;-43
2022/09/01 12:27:54;;;;;;;3.23;0.50;;;22.90;76.00;;;;;;5041246;28;20207;-43
2022/09/01 12:30:21;;;;;;;0.93;0.33;;;23.10;74.80;;;;;;5031583;28;20221;-44
2022/09/01 12:32:48;;;;;;;0.60;0.33;;;23.20;73.90;;;;;;5038669;28;20218;-42
2022/09/01 12:35:20;;;;;;;2.73;0.40;;;23.10;74.30;;;;;;5036909;28;20497;-42
2022/09/01 12:37:49;;;;;;;2.63;0.60;;;23.20;74.20;;;;;;5043715;28;20213;-44
2022/09/01 12:40:25;;;;;;;1.33;0.47;;;23.10;74.70;;;;;;5037750;28;20210;-44
2022/09/01 12:42:53;;;;;;;1.10;0.30;;;23.30;73.70;;;;;;5035471;28;20224;-42
2022/09/01 12:45:42;;;;;;;2.83;0.50;;;23.50;72.50;;;;;;5026063;28;20206;-42
2022/09/01 12:48:24;;;;;;;0.65;0.40;;;23.30;69.50;;;;;;5043821;28;20194;-42
2022/09/01 12:50:52;;;;;;;0.40;0.30;;;23.30;71.30;;;;;;5040272;28;20187;-43
2022/09/01 12:53:26;;;;;;;1.27;0.50;;;23.40;72.00;;;;;;5038486;28;20231;-42
2022/09/01 12:56:16;;;;;;;0.30;0.30;;;23.80;70.80;;;;;;5036170;28;20675;-46
2022/09/01 12:58:47;;;;;;;0.40;0.40;;;23.90;69.70;;;;;;5041244;28;20202;-43
2022/09/01 13:01:26;;;;;;;1.15;0.38;;;23.60;69.50;;;;;;5028227;28;20227;-42
2022/09/01 13:04:28;;;;;;;1.42;0.40;;;23.50;69.20;;;;;;5045063;28;20691;-42
2022/09/01 13:07:03;;;;;;;0.25;0.20;;;23.70;69.30;;;;;;5032855;28;20203;-45
2022/09/01 13:09:30;;;;;;;1.60;0.40;;;24.10;67.90;;;;;;5040483;28;20194;-44
2022/09/01 13:12:11;;;;;;;0.30;0.30;;;24.40;66.80;;;;;;5031433;28;20219;-47
2022/09/01 13:14:38;;;;;;;0.30;0.30;;;24.50;66.10;;;;;;5034680;28;20195;-46
2022/09/01 13:17:05;;;;;;;0.50;0.30;;;24.70;65.80;;;;;;5027774;28;20211;-43
2022/09/01 13:19:32;;;;;;;0.73;0.60;;;24.90;65.50;;;;;;5050839;28;20229;-42